createdAt,value
2023-05-01T00:04:35.690Z,100817.44
2023-05-01T00:09:38.357Z,100813.50
2023-05-01T00:14:41.590Z,100810.38
2023-05-01T00:19:44.072Z,100822.13
2023-05-01T00:24:49.226Z,100815.00
2023-05-01T00:29:51.875Z,100809.47
2023-05-01T00:34:59.180Z,100795.16
2023-05-01T00:40:01.931Z,100802.03
2023-05-01T00:45:09.203Z,100812.69
2023-05-01T00:50:12.331Z,100792.53
2023-05-01T00:55:14.865Z,100812.72
2023-05-01T01:00:19.653Z,100852.59
2023-05-01T01:05:26.208Z,100857.22
2023-05-01T01:11:10.802Z,100847.84
2023-05-01T01:16:21.929Z,100858.25
2023-05-01T01:21:32.594Z,100858.13
2023-05-01T01:27:12.569Z,100835.22
2023-05-01T01:32:52.591Z,100846.44
2023-05-01T01:38:00.874Z,100848.38
2023-05-01T01:43:09.542Z,100853.59
2023-05-01T01:48:18.102Z,100849.34
2023-05-01T01:53:22.375Z,100856.34
2023-05-01T01:58:26.715Z,100869.25
2023-05-01T02:03:31.780Z,100842.97
2023-05-01T02:08:37.489Z,100857.00
2023-05-01T02:13:41.353Z,100871.56
2023-05-01T02:19:05.526Z,100871.94
2023-05-01T02:24:09.357Z,100888.38
2023-05-01T02:29:12.131Z,100889.34
2023-05-01T02:34:15.955Z,100898.78
2023-05-01T02:39:19.304Z,100900.22
2023-05-01T02:44:24.216Z,100919.94
2023-05-01T02:49:28.011Z,100915.03
2023-05-01T02:54:31.392Z,100918.31
2023-05-01T02:59:35.237Z,100914.34
2023-05-01T03:04:42.936Z,100894.81
2023-05-01T03:09:45.652Z,100903.84
2023-05-01T03:14:48.201Z,100910.97
2023-05-01T03:19:51.926Z,100932.16
2023-05-01T03:24:54.509Z,100929.19
2023-05-01T03:29:57.817Z,100934.94
2023-05-01T03:35:01.030Z,100937.41
2023-05-01T03:40:03.972Z,100938.44
2023-05-01T03:45:25.585Z,100936.28
2023-05-01T03:50:29.252Z,100932.47
2023-05-01T03:55:31.814Z,100919.56
2023-05-01T04:00:34.574Z,100925.50
2023-05-01T04:05:37.596Z,100934.22
2023-05-01T04:10:40.132Z,100923.28
2023-05-01T04:15:46.935Z,100922.53
2023-05-01T04:20:49.702Z,100918.84
2023-05-01T04:25:52.281Z,100929.84
2023-05-01T04:30:55.059Z,100942.41
2023-05-01T04:35:58.306Z,100964.06
2023-05-01T04:41:01.119Z,100954.81
2023-05-01T04:46:05.069Z,100981.19
2023-05-01T04:51:08.878Z,100967.03
2023-05-01T04:56:11.419Z,100975.06
2023-05-01T05:01:17.310Z,101003.16
2023-05-01T05:06:20.635Z,100998.13
2023-05-01T05:11:23.410Z,100984.47
2023-05-01T05:16:51.922Z,101005.72
2023-05-01T05:21:54.988Z,101014.53
2023-05-01T05:26:58.221Z,101011.16
2023-05-01T05:32:01.955Z,101037.91
2023-05-01T05:37:04.870Z,101031.47
2023-05-01T05:42:11.468Z,101035.69
2023-05-01T05:47:15.385Z,101010.69
2023-05-01T05:52:17.997Z,101038.16
2023-05-01T05:57:20.617Z,101020.03
2023-05-01T06:02:26.217Z,101038.16
2023-05-01T06:07:29.215Z,101040.63
2023-05-01T06:12:32.181Z,101042.69
2023-05-01T06:17:37.869Z,101064.53
2023-05-01T06:22:42.966Z,101043.03
2023-05-01T06:27:52.715Z,101061.06
2023-05-01T06:32:57.609Z,101069.50
2023-05-01T06:38:01.030Z,101064.69
2023-05-01T06:43:04.122Z,101064.66
2023-05-01T06:48:06.704Z,101073.78
2023-05-01T06:53:11.323Z,101080.88
2023-05-01T06:58:23.574Z,101085.63
2023-05-01T07:03:29.724Z,101088.56
2023-05-01T07:08:33.205Z,101095.75
2023-05-01T07:13:35.867Z,101084.97
2023-05-01T07:18:39.593Z,101107.69
2023-05-01T07:23:42.359Z,101102.22
2023-05-01T07:28:44.954Z,101108.88
2023-05-01T07:33:48.321Z,101103.25
2023-05-01T07:38:51.067Z,101120.34
2023-05-01T07:43:53.616Z,101121.81
2023-05-01T07:48:56.349Z,101118.72
2023-05-01T07:53:59.315Z,101122.88
2023-05-01T07:59:01.931Z,101122.34
2023-05-01T08:04:04.688Z,101108.22
2023-05-01T08:09:09.728Z,101125.69
2023-05-01T08:14:12.311Z,101133.91
2023-05-01T08:19:14.897Z,101132.13
2023-05-01T08:24:17.423Z,101142.25
2023-05-01T08:29:20.025Z,101140.19
2023-05-01T08:34:23.085Z,101152.59
2023-05-01T08:39:25.772Z,101144.16
2023-05-01T08:44:29.353Z,101129.50
2023-05-01T08:49:35.081Z,101143.38
2023-05-01T08:54:42.661Z,101136.78
2023-05-01T08:59:47.421Z,101148.16
2023-05-01T09:04:55.722Z,101159.81
2023-05-01T09:09:58.582Z,101161.66
2023-05-01T09:15:03.212Z,101154.19
2023-05-01T09:20:08.011Z,101157.28
2023-05-01T09:25:11.313Z,101138.66
2023-05-01T09:30:35.886Z,101148.91
2023-05-01T09:35:59.899Z,101150.00
2023-05-01T09:41:06.683Z,101148.91
2023-05-01T09:46:11.035Z,101164.97
2023-05-01T09:51:33.575Z,101162.78
2023-05-01T09:56:48.112Z,101186.84
2023-05-01T10:01:51.017Z,101180.50
2023-05-01T10:06:54.030Z,101177.81
2023-05-01T10:11:58.038Z,101196.78
2023-05-01T10:17:00.758Z,101188.88
2023-05-01T10:22:03.683Z,101198.19
2023-05-01T10:27:10.693Z,101196.63
2023-05-01T10:32:13.732Z,101201.50
2023-05-01T10:37:46.270Z,101196.38
2023-05-01T10:43:13.416Z,101195.53
2023-05-01T10:48:41.010Z,101196.91
2023-05-01T10:53:45.389Z,101193.06
2023-05-01T10:58:52.019Z,101197.69
2023-05-01T11:03:56.214Z,101187.09
2023-05-01T11:08:58.907Z,101175.94
2023-05-01T11:14:03.236Z,101198.81
2023-05-01T11:19:09.905Z,101191.75
2023-05-01T11:24:12.552Z,101192.25
2023-05-01T11:29:15.129Z,101183.63
2023-05-01T11:34:18.370Z,101184.69
2023-05-01T11:39:22.295Z,101180.34
2023-05-01T11:44:27.892Z,101181.91
2023-05-01T11:49:30.528Z,101177.97
2023-05-01T11:54:47.978Z,101174.56
2023-05-01T11:59:50.652Z,101194.22
2023-05-01T12:04:54.216Z,101180.44
2023-05-01T12:09:57.058Z,101189.00
2023-05-01T12:14:59.887Z,101177.59
2023-05-01T12:20:04.735Z,101195.00
2023-05-01T12:25:08.046Z,101188.97
2023-05-01T12:30:11.004Z,101200.63
2023-05-01T12:35:16.911Z,101186.63
2023-05-01T12:40:25.591Z,101206.88
2023-05-01T12:45:31.017Z,101193.31
2023-05-01T12:50:38.575Z,101204.25
2023-05-01T12:55:48.455Z,101209.59
2023-05-01T13:01:09.314Z,101208.09
2023-05-01T13:06:11.877Z,101207.28
2023-05-01T13:11:18.151Z,101207.22
2023-05-01T13:16:21.195Z,101219.16
2023-05-01T13:21:25.179Z,101220.94
2023-05-01T13:26:33.316Z,101236.53
2023-05-01T13:31:35.970Z,101228.56
2023-05-01T13:36:40.753Z,101234.94
2023-05-01T13:41:43.179Z,101240.94
2023-05-01T13:46:46.826Z,101257.44
2023-05-01T13:51:49.803Z,101266.69
2023-05-01T13:56:53.495Z,101258.78
2023-05-01T14:01:56.321Z,101270.22
2023-05-01T14:07:01.529Z,101267.78
2023-05-01T14:12:04.253Z,101266.13
2023-05-01T14:17:09.428Z,101277.22
2023-05-01T14:22:12.593Z,101270.84
2023-05-01T14:27:15.782Z,101291.16
2023-05-01T14:32:18.372Z,101297.41
2023-05-01T14:37:20.958Z,101295.97
2023-05-01T14:42:23.484Z,101307.19
2023-05-01T14:47:31.534Z,101319.19
2023-05-01T14:52:39.425Z,101311.00
2023-05-01T14:57:43.860Z,101322.53
2023-05-01T15:02:47.213Z,101300.88
2023-05-01T15:07:49.889Z,101297.28
2023-05-01T15:12:52.585Z,101303.00
2023-05-01T15:17:56.187Z,101301.78
2023-05-01T15:22:58.695Z,101296.88
2023-05-01T15:28:01.905Z,101303.16
2023-05-01T15:33:04.935Z,101308.88
2023-05-01T15:38:08.644Z,101311.16
2023-05-01T15:43:11.126Z,101319.28
2023-05-01T15:48:16.049Z,101319.31
2023-05-01T15:53:18.745Z,101324.44
2023-05-01T15:58:23.588Z,101318.25
2023-05-01T16:03:26.324Z,101331.28
2023-05-01T16:08:29.130Z,101346.50
2023-05-01T16:13:31.835Z,101350.13
2023-05-01T16:18:39.867Z,101354.25
2023-05-01T16:23:42.477Z,101368.16
2023-05-01T16:28:44.955Z,101366.50
2023-05-01T16:33:50.418Z,101377.84
2023-05-01T16:38:55.375Z,101381.13
2023-05-01T16:44:01.212Z,101380.03
2023-05-01T16:49:05.204Z,101380.72
2023-05-01T16:54:08.151Z,101388.31
2023-05-01T16:59:10.608Z,101409.25
2023-05-01T17:04:14.557Z,101417.66
2023-05-01T17:09:18.958Z,101415.72
2023-05-01T17:14:31.674Z,101413.00
2023-05-01T17:19:34.296Z,101403.91
2023-05-01T17:24:39.860Z,101429.75
2023-05-01T17:29:42.519Z,101430.06
2023-05-01T17:34:45.067Z,101432.25
2023-05-01T17:39:47.444Z,101437.44
2023-05-01T17:44:49.962Z,101440.22
2023-05-01T17:49:52.844Z,101436.41
2023-05-01T17:54:55.321Z,101439.94
2023-05-01T17:59:58.572Z,101420.22
2023-05-01T18:05:01.823Z,101441.28
2023-05-01T18:10:07.665Z,101432.69
2023-05-01T18:15:10.596Z,101439.94
2023-05-01T18:20:16.118Z,101429.03
2023-05-01T18:25:18.772Z,101424.53
2023-05-01T18:30:23.687Z,101432.00
2023-05-01T18:35:26.171Z,101421.69
2023-05-01T18:40:28.740Z,101427.97
2023-05-01T18:45:31.483Z,101414.97
2023-05-01T18:50:36.852Z,101418.09
2023-05-01T18:55:39.379Z,101421.66
2023-05-01T19:00:42.029Z,101417.00
2023-05-01T19:05:44.775Z,101414.91
2023-05-01T19:10:47.449Z,101409.84
2023-05-01T19:15:50.049Z,101421.75
2023-05-01T19:20:52.904Z,101414.91
2023-05-01T19:25:55.556Z,101422.81
2023-05-01T19:30:58.253Z,101430.09
2023-05-01T19:36:01.008Z,101447.22
2023-05-01T19:41:04.582Z,101422.53
2023-05-01T19:46:07.785Z,101425.59
2023-05-01T19:51:10.398Z,101433.59
2023-05-01T19:56:13.055Z,101443.84
2023-05-01T20:01:15.565Z,101454.22
2023-05-01T20:06:18.207Z,101454.66
2023-05-01T20:11:21.096Z,101440.28
2023-05-01T20:16:23.722Z,101451.81
2023-05-01T20:21:26.248Z,101445.41
2023-05-01T20:26:47.334Z,101445.69
2023-05-01T20:31:51.744Z,101453.34
2023-05-01T20:36:54.343Z,101465.09
2023-05-01T20:41:59.344Z,101460.97
2023-05-01T20:47:01.892Z,101453.97
2023-05-01T20:52:04.407Z,101449.44
2023-05-01T20:57:07.108Z,101447.41
2023-05-01T21:02:10.012Z,101454.03
2023-05-01T21:07:13.276Z,101454.66
2023-05-01T21:12:18.424Z,101461.50
2023-05-01T21:17:21.021Z,101452.88
2023-05-01T21:22:24.287Z,101455.75
2023-05-01T21:27:27.694Z,101469.38
2023-05-01T21:32:38.390Z,101465.03
2023-05-01T21:37:43.874Z,101464.22
2023-05-01T21:42:46.787Z,101458.44
2023-05-01T21:47:51.563Z,101470.22
2023-05-01T21:52:54.222Z,101470.66
2023-05-01T21:57:58.855Z,101472.94
2023-05-01T22:03:06.454Z,101478.50
2023-05-01T22:08:09.026Z,101482.19
2023-05-01T22:13:12.056Z,101483.19
2023-05-01T22:18:19.784Z,101492.06
2023-05-01T22:23:22.505Z,101476.00
2023-05-01T22:28:25.133Z,101490.22
2023-05-01T22:33:28.359Z,101488.38
2023-05-01T22:38:31.016Z,101509.38
2023-05-01T22:43:34.821Z,101515.38
2023-05-01T22:48:37.286Z,101519.91
2023-05-01T22:53:39.822Z,101538.00
2023-05-01T22:58:43.120Z,101540.50
2023-05-01T23:03:45.830Z,101540.69
2023-05-01T23:08:52.938Z,101535.31
2023-05-01T23:13:55.434Z,101536.94
2023-05-01T23:18:58.012Z,101539.00
2023-05-01T23:24:01.717Z,101530.19
2023-05-01T23:29:07.263Z,101530.19
2023-05-01T23:34:09.855Z,101538.50
2023-05-01T23:39:12.827Z,101538.13
2023-05-01T23:44:15.813Z,101550.91
2023-05-01T23:49:19.334Z,101550.28
2023-05-01T23:54:21.742Z,101549.69
2023-05-01T23:59:25.786Z,101554.44
